createdAt,value
2017-06-13T00:00:05.351Z,43.50
2017-06-13T00:02:32.819Z,43.50
2017-06-13T00:05:01.039Z,43.40
2017-06-13T00:07:28.493Z,43.50
2017-06-13T00:09:55.945Z,43.40
2017-06-13T00:12:23.386Z,43.40
2017-06-13T00:14:50.907Z,43.40
2017-06-13T00:17:18.363Z,43.40
2017-06-13T00:19:45.831Z,43.40
2017-06-13T00:22:13.380Z,43.40
2017-06-13T00:24:40.836Z,43.30
2017-06-13T00:27:08.296Z,43.30
2017-06-13T00:29:35.751Z,43.40
2017-06-13T00:32:03.206Z,43.40
2017-06-13T00:34:30.666Z,43.30
2017-06-13T00:36:59.651Z,43.80
2017-06-13T00:39:27.206Z,43.20
2017-06-13T00:41:54.663Z,43.40
2017-06-13T00:44:22.122Z,43.40
2017-06-13T00:46:49.579Z,43.40
2017-06-13T00:49:17.039Z,43.40
2017-06-13T00:51:44.495Z,43.40
2017-06-13T00:54:11.950Z,43.40
2017-06-13T00:56:39.408Z,43.40
2017-06-13T00:59:06.965Z,43.40
2017-06-13T01:01:34.419Z,43.40
2017-06-13T01:04:01.868Z,43.40
2017-06-13T01:06:29.335Z,43.40
2017-06-13T01:08:56.788Z,43.50
2017-06-13T01:11:24.250Z,43.50
2017-06-13T01:13:51.693Z,43.50
2017-06-13T01:16:19.154Z,43.50
2017-06-13T01:18:46.615Z,43.50
2017-06-13T01:21:14.086Z,43.50
2017-06-13T01:23:41.631Z,43.50
2017-06-13T01:26:09.091Z,43.50
2017-06-13T01:28:36.643Z,43.60
2017-06-13T01:31:04.099Z,43.60
2017-06-13T01:33:31.545Z,43.60
2017-06-13T01:35:59.001Z,43.60
2017-06-13T01:38:26.458Z,43.50
2017-06-13T01:40:54.018Z,43.60
2017-06-13T01:43:21.477Z,43.60
2017-06-13T01:45:48.940Z,43.60
2017-06-13T01:48:16.402Z,43.60
2017-06-13T01:50:43.852Z,43.50
2017-06-13T01:53:11.314Z,43.60
2017-06-13T01:55:38.763Z,43.60
2017-06-13T01:58:06.231Z,43.50
2017-06-13T02:00:33.679Z,43.50
2017-06-13T02:03:01.150Z,43.60
2017-06-13T02:05:29.406Z,43.60
2017-06-13T02:07:57.579Z,43.60
2017-06-13T02:10:25.036Z,43.60
2017-06-13T02:12:52.486Z,43.60
2017-06-13T02:15:19.939Z,43.60
2017-06-13T02:17:47.403Z,43.60
2017-06-13T02:20:14.860Z,43.60
2017-06-13T02:22:42.319Z,43.60
2017-06-13T02:25:09.775Z,43.70
2017-06-13T02:27:37.230Z,43.70
2017-06-13T02:30:04.704Z,43.60
2017-06-13T02:32:32.255Z,43.70
2017-06-13T02:34:59.714Z,43.70
2017-06-13T02:37:27.977Z,43.70
2017-06-13T02:39:55.539Z,43.70
2017-06-13T02:42:23.002Z,43.80
2017-06-13T02:44:50.472Z,43.70
2017-06-13T02:47:18.687Z,44.10
2017-06-13T02:49:46.145Z,43.70
2017-06-13T02:52:13.589Z,43.80
2017-06-13T02:54:41.095Z,43.70
2017-06-13T02:57:08.542Z,43.60
2017-06-13T02:59:35.991Z,43.70
2017-06-13T03:02:03.448Z,43.70
2017-06-13T03:04:30.906Z,43.70
2017-06-13T03:06:58.474Z,43.80
2017-06-13T03:09:25.936Z,43.70
2017-06-13T03:11:53.407Z,43.70
2017-06-13T03:14:21.623Z,43.70
2017-06-13T03:16:49.083Z,43.70
2017-06-13T03:19:16.577Z,43.80
2017-06-13T03:21:44.135Z,43.80
2017-06-13T03:24:11.582Z,43.80
2017-06-13T03:26:39.034Z,43.80
2017-06-13T03:29:06.499Z,43.90
2017-06-13T03:31:33.950Z,43.90
2017-06-13T03:34:01.394Z,43.80
2017-06-13T03:36:28.875Z,43.80
2017-06-13T03:38:56.339Z,43.70
2017-06-13T03:41:23.793Z,43.70
2017-06-13T03:43:51.346Z,43.80
2017-06-13T03:46:18.807Z,43.70
2017-06-13T03:48:46.263Z,43.70
2017-06-13T03:51:13.718Z,43.70
2017-06-13T03:53:41.175Z,43.70
2017-06-13T03:56:08.630Z,43.70
2017-06-13T03:58:36.194Z,43.70
2017-06-13T04:01:03.739Z,43.90
2017-06-13T04:03:31.304Z,43.80
2017-06-13T04:05:58.762Z,43.70
2017-06-13T04:08:27.319Z,43.80
2017-06-13T04:10:54.766Z,43.90
2017-06-13T04:13:22.213Z,44.00
2017-06-13T04:15:49.674Z,44.00
2017-06-13T04:18:17.130Z,44.10
2017-06-13T04:20:44.586Z,44.20
2017-06-13T04:23:12.042Z,44.10
2017-06-13T04:25:39.503Z,44.20
2017-06-13T04:28:06.959Z,44.20
2017-06-13T04:30:34.447Z,44.10
2017-06-13T04:33:01.903Z,44.10
2017-06-13T04:35:29.363Z,44.10
2017-06-13T04:37:56.813Z,44.10
2017-06-13T04:40:24.274Z,44.10
2017-06-13T04:42:51.731Z,44.10
2017-06-13T04:45:19.191Z,44.10
2017-06-13T04:47:46.743Z,44.10
2017-06-13T04:50:14.190Z,44.10
2017-06-13T04:52:41.759Z,44.20
2017-06-13T04:55:09.211Z,44.10
2017-06-13T04:57:36.672Z,44.10
2017-06-13T05:00:04.133Z,44.40
2017-06-13T05:02:31.604Z,44.20
2017-06-13T05:04:59.858Z,44.60
2017-06-13T05:07:27.322Z,44.10
2017-06-13T05:09:54.867Z,44.10
2017-06-13T05:12:22.335Z,44.10
2017-06-13T05:14:49.892Z,44.20
2017-06-13T05:17:17.357Z,44.20
2017-06-13T05:19:44.814Z,44.20
2017-06-13T05:22:12.366Z,44.30
2017-06-13T05:24:39.819Z,44.30
2017-06-13T05:27:07.382Z,44.30
2017-06-13T05:29:34.843Z,44.30
2017-06-13T05:32:02.292Z,44.30
2017-06-13T05:34:29.752Z,44.20
2017-06-13T05:36:57.202Z,44.30
2017-06-13T05:39:24.761Z,44.30
2017-06-13T05:41:52.215Z,44.30
2017-06-13T05:44:19.671Z,44.30
2017-06-13T05:46:47.122Z,44.30
2017-06-13T05:49:14.587Z,44.30
2017-06-13T05:51:42.044Z,44.30
2017-06-13T05:54:09.499Z,44.30
2017-06-13T05:56:36.952Z,44.40
2017-06-13T05:59:04.434Z,44.30
2017-06-13T06:01:32.687Z,44.50
2017-06-13T06:04:00.142Z,44.40
2017-06-13T06:06:27.606Z,44.40
2017-06-13T06:08:55.823Z,44.60
2017-06-13T06:11:23.282Z,44.40
2017-06-13T06:13:50.731Z,44.40
2017-06-13T06:16:18.242Z,44.40
2017-06-13T06:18:45.804Z,44.40
2017-06-13T06:21:13.266Z,44.40
2017-06-13T06:23:41.531Z,44.80
2017-06-13T06:26:08.993Z,44.40
2017-06-13T06:28:36.451Z,44.40
2017-06-13T06:31:04.009Z,44.40
2017-06-13T06:33:31.462Z,44.40
2017-06-13T06:35:58.930Z,44.50
2017-06-13T06:38:26.478Z,44.50
2017-06-13T06:40:53.939Z,44.40
2017-06-13T06:43:21.399Z,44.50
2017-06-13T06:45:49.616Z,44.60
2017-06-13T06:48:17.088Z,44.40
2017-06-13T06:50:44.576Z,44.40
2017-06-13T06:53:12.032Z,44.50
2017-06-13T06:55:39.490Z,44.50
2017-06-13T06:58:06.947Z,44.40
2017-06-13T07:00:34.403Z,44.50
2017-06-13T07:03:01.960Z,44.50
2017-06-13T07:05:29.415Z,44.40
2017-06-13T07:07:56.883Z,44.30
2017-06-13T07:10:24.327Z,44.40
2017-06-13T07:12:51.798Z,44.30
2017-06-13T07:15:20.018Z,45.10
2017-06-13T07:17:47.514Z,44.40
2017-06-13T07:20:14.976Z,44.40
2017-06-13T07:22:42.433Z,44.30
2017-06-13T07:25:09.989Z,44.30
2017-06-13T07:27:37.442Z,44.40
2017-06-13T07:30:04.902Z,44.40
2017-06-13T07:32:32.354Z,44.40
2017-06-13T07:34:59.822Z,44.40
2017-06-13T07:37:27.376Z,44.40
2017-06-13T07:39:54.827Z,44.40
2017-06-13T07:42:22.279Z,44.40
2017-06-13T07:44:49.843Z,44.40
2017-06-13T07:47:17.303Z,44.40
2017-06-13T07:49:44.759Z,44.40
2017-06-13T07:52:12.271Z,44.40
2017-06-13T07:54:39.754Z,44.50
2017-06-13T07:57:07.180Z,44.50
2017-06-13T07:59:34.680Z,44.50
2017-06-13T08:02:02.143Z,44.40
2017-06-13T08:04:29.594Z,44.60
2017-06-13T08:06:57.063Z,44.50
2017-06-13T08:09:24.510Z,44.50
2017-06-13T08:11:51.983Z,44.50
2017-06-13T08:14:19.434Z,44.50
2017-06-13T08:16:46.963Z,44.60
2017-06-13T08:19:14.423Z,44.50
2017-06-13T08:21:41.899Z,44.60
2017-06-13T08:24:09.454Z,44.50
2017-06-13T08:26:36.920Z,44.60
2017-06-13T08:29:05.145Z,44.60
2017-06-13T08:31:32.593Z,44.60
2017-06-13T08:34:00.056Z,44.60
2017-06-13T08:36:27.512Z,44.60
2017-06-13T08:38:55.007Z,44.60
2017-06-13T08:41:22.467Z,44.60
2017-06-13T08:43:49.924Z,44.60
2017-06-13T08:46:17.378Z,44.60
2017-06-13T08:48:44.930Z,44.60
2017-06-13T08:51:12.494Z,44.60
2017-06-13T08:53:39.959Z,44.60
2017-06-13T08:56:08.183Z,44.80
2017-06-13T08:58:35.648Z,44.60
2017-06-13T09:01:03.132Z,44.60
2017-06-13T09:03:30.695Z,44.70
2017-06-13T09:05:58.155Z,44.60
2017-06-13T09:08:25.627Z,44.70
2017-06-13T09:10:53.895Z,44.70
2017-06-13T09:13:22.158Z,44.60
2017-06-13T09:15:49.618Z,44.60
2017-06-13T09:18:17.077Z,44.60
2017-06-13T09:20:44.530Z,44.70
2017-06-13T09:23:12.082Z,44.70
2017-06-13T09:25:39.545Z,44.60
2017-06-13T09:28:07.003Z,44.70
2017-06-13T09:30:34.466Z,44.70
2017-06-13T09:33:02.016Z,44.70
2017-06-13T09:35:29.483Z,44.80
2017-06-13T09:37:57.697Z,45.00
2017-06-13T09:40:25.163Z,44.80
2017-06-13T09:42:52.622Z,44.70
2017-06-13T09:45:20.068Z,44.80
2017-06-13T09:47:47.530Z,44.80
2017-06-13T09:50:14.987Z,44.80
2017-06-13T09:52:42.442Z,44.80
2017-06-13T09:55:09.899Z,44.80
2017-06-13T09:57:37.360Z,44.80
2017-06-13T10:00:04.817Z,44.80
2017-06-13T10:02:32.307Z,44.80
2017-06-13T10:04:59.763Z,44.80
2017-06-13T10:07:27.218Z,44.80
2017-06-13T10:09:54.678Z,44.80
2017-06-13T10:12:22.164Z,44.80
2017-06-13T10:14:49.698Z,44.90
2017-06-13T10:17:17.914Z,44.90
2017-06-13T10:19:45.362Z,44.80
2017-06-13T10:22:12.818Z,44.90
2017-06-13T10:24:40.279Z,44.90
2017-06-13T10:27:07.730Z,44.90
2017-06-13T10:29:35.246Z,44.90
2017-06-13T10:32:02.702Z,45.00
2017-06-13T10:34:30.162Z,44.90
2017-06-13T10:36:57.618Z,44.90
2017-06-13T10:39:25.075Z,44.90
2017-06-13T10:41:52.531Z,44.90
2017-06-13T10:44:20.011Z,44.80
2017-06-13T10:46:48.237Z,44.80
2017-06-13T10:49:15.715Z,45.30
2017-06-13T10:51:43.174Z,44.90
2017-06-13T10:54:10.638Z,45.40
2017-06-13T10:56:38.095Z,44.90
2017-06-13T10:59:05.647Z,44.90
2017-06-13T11:01:33.117Z,44.90
2017-06-13T11:04:00.572Z,44.90
2017-06-13T11:06:28.028Z,44.90
2017-06-13T11:08:56.247Z,45.50
2017-06-13T11:11:23.714Z,44.90
2017-06-13T11:13:51.196Z,44.90
2017-06-13T11:16:18.667Z,45.00
2017-06-13T11:18:46.878Z,44.90
2017-06-13T11:21:14.386Z,44.90
2017-06-13T11:23:41.948Z,44.90
2017-06-13T11:26:09.403Z,44.70
2017-06-13T11:28:36.862Z,44.80
2017-06-13T11:31:04.315Z,44.80
2017-06-13T11:33:31.771Z,44.90
2017-06-13T11:35:59.226Z,44.80
2017-06-13T11:38:26.686Z,44.70
2017-06-13T11:40:54.138Z,44.70
2017-06-13T11:43:21.607Z,44.70
2017-06-13T11:45:49.159Z,44.60
2017-06-13T11:48:16.626Z,44.60
2017-06-13T11:50:44.847Z,44.70
2017-06-13T11:53:12.347Z,44.60
2017-06-13T11:55:39.798Z,44.70
2017-06-13T11:58:07.271Z,44.60
2017-06-13T12:00:35.534Z,44.60
2017-06-13T12:03:03.091Z,44.60
2017-06-13T12:05:30.546Z,44.60
2017-06-13T12:07:58.016Z,44.60
2017-06-13T12:10:25.562Z,44.60
2017-06-13T12:12:53.128Z,44.50
2017-06-13T12:15:20.678Z,44.50
2017-06-13T12:17:48.138Z,44.50
2017-06-13T12:20:15.597Z,44.60
2017-06-13T12:22:43.123Z,44.60
2017-06-13T12:25:10.631Z,44.60
2017-06-13T12:27:38.830Z,44.70
2017-06-13T12:30:06.339Z,44.60
2017-06-13T12:32:33.786Z,44.70
2017-06-13T12:35:01.251Z,44.60
2017-06-13T12:37:28.710Z,44.60
2017-06-13T12:39:56.167Z,44.60
2017-06-13T12:42:23.618Z,44.60
2017-06-13T12:44:51.074Z,44.60
2017-06-13T12:47:18.531Z,44.60
2017-06-13T12:49:45.988Z,44.60
2017-06-13T12:52:14.263Z,44.60
2017-06-13T12:54:41.719Z,44.50
2017-06-13T12:57:09.179Z,44.60
2017-06-13T12:59:36.729Z,44.50
2017-06-13T13:02:04.353Z,44.60
2017-06-13T13:04:31.806Z,44.60
2017-06-13T13:06:59.266Z,44.60
2017-06-13T13:09:26.711Z,44.50
2017-06-13T13:11:54.219Z,44.50
2017-06-13T13:14:21.678Z,44.60
2017-06-13T13:16:49.134Z,44.50
2017-06-13T13:19:16.598Z,44.60
2017-06-13T13:21:44.147Z,44.50
2017-06-13T13:24:11.607Z,44.50
2017-06-13T13:26:39.059Z,44.50
2017-06-13T13:29:06.519Z,44.50
2017-06-13T13:31:33.977Z,44.50
2017-06-13T13:34:01.448Z,44.40
2017-06-13T13:36:29.666Z,44.40
2017-06-13T13:38:57.119Z,44.40
2017-06-13T13:41:24.575Z,44.40
2017-06-13T13:43:52.034Z,44.50
2017-06-13T13:46:19.494Z,44.40
2017-06-13T13:48:46.990Z,44.50
2017-06-13T13:51:14.446Z,44.50
2017-06-13T13:53:42.000Z,44.40
2017-06-13T13:56:09.466Z,44.50
2017-06-13T13:58:36.923Z,44.50
2017-06-13T14:01:04.471Z,44.50
2017-06-13T14:03:31.926Z,44.50
2017-06-13T14:05:59.382Z,44.50
2017-06-13T14:08:26.838Z,44.50
2017-06-13T14:10:54.317Z,44.50
2017-06-13T14:13:22.550Z,45.00
2017-06-13T14:15:50.007Z,44.50
2017-06-13T14:18:17.478Z,44.50
2017-06-13T14:20:44.931Z,44.50
2017-06-13T14:23:12.394Z,44.50
2017-06-13T14:25:39.851Z,44.50
2017-06-13T14:28:07.319Z,44.50
2017-06-13T14:30:34.866Z,44.90
2017-06-13T14:33:02.335Z,44.40
2017-06-13T14:35:29.882Z,44.40
2017-06-13T14:37:57.347Z,44.30
2017-06-13T14:40:24.890Z,44.30
2017-06-13T14:42:52.355Z,44.30
2017-06-13T14:45:19.810Z,44.40
2017-06-13T14:47:47.267Z,44.30
2017-06-13T14:50:14.722Z,44.40
2017-06-13T14:52:42.183Z,44.40
2017-06-13T14:55:09.642Z,44.40
2017-06-13T14:57:37.196Z,44.40
2017-06-13T15:00:04.654Z,44.40
2017-06-13T15:02:32.109Z,44.40
2017-06-13T15:04:59.565Z,44.40
2017-06-13T15:07:27.012Z,44.40
2017-06-13T15:09:54.470Z,44.40
2017-06-13T15:12:21.923Z,44.40
2017-06-13T15:14:49.392Z,44.40
2017-06-13T15:17:16.842Z,44.40
2017-06-13T15:19:44.302Z,44.30
2017-06-13T15:22:11.758Z,44.40
2017-06-13T15:24:39.312Z,44.40
2017-06-13T15:27:06.767Z,44.40
2017-06-13T15:29:34.219Z,44.30
2017-06-13T15:32:01.682Z,44.30
2017-06-13T15:34:29.143Z,44.30
2017-06-13T15:36:56.598Z,44.30
2017-06-13T15:39:24.051Z,44.20
2017-06-13T15:41:51.510Z,44.80
2017-06-13T15:44:19.070Z,44.20
2017-06-13T15:46:46.523Z,44.30
2017-06-13T15:49:13.971Z,44.20
2017-06-13T15:51:41.435Z,44.20
2017-06-13T15:54:08.891Z,44.50
2017-06-13T15:56:36.355Z,44.40
2017-06-13T15:59:03.802Z,44.00
2017-06-13T16:01:31.373Z,43.60
2017-06-13T16:03:58.823Z,43.20
2017-06-13T16:06:26.374Z,42.90
2017-06-13T16:08:53.819Z,42.70
2017-06-13T16:11:21.270Z,42.50
2017-06-13T16:13:48.740Z,42.30
2017-06-13T16:16:16.307Z,42.30
2017-06-13T16:18:43.765Z,42.30
2017-06-13T16:21:11.214Z,42.20
2017-06-13T16:23:38.684Z,42.20
2017-06-13T16:26:06.136Z,42.30
2017-06-13T16:28:33.602Z,42.30
2017-06-13T16:31:01.147Z,42.20
2017-06-13T16:33:28.610Z,42.10
2017-06-13T16:35:56.068Z,40.60
2017-06-13T16:38:23.616Z,41.30
2017-06-13T16:40:51.063Z,41.40
2017-06-13T16:43:18.522Z,41.60
2017-06-13T16:45:45.975Z,41.70
2017-06-13T16:48:13.543Z,41.60
2017-06-13T16:50:40.995Z,41.70
2017-06-13T16:53:08.446Z,41.80
2017-06-13T16:55:36.008Z,41.60
2017-06-13T16:58:03.468Z,41.30
2017-06-13T17:00:30.934Z,40.10
2017-06-13T17:02:58.341Z,40.00
2017-06-13T17:05:25.846Z,41.00
2017-06-13T17:07:53.302Z,41.20
2017-06-13T17:10:21.536Z,41.40
2017-06-13T17:12:49.027Z,41.40
2017-06-13T17:15:16.490Z,37.10
2017-06-13T17:17:44.044Z,36.50
2017-06-13T17:20:11.507Z,35.80
2017-06-13T17:22:39.724Z,35.50
2017-06-13T17:25:07.193Z,35.40
2017-06-13T17:27:34.642Z,35.60
2017-06-13T17:30:02.140Z,35.40
2017-06-13T17:32:29.599Z,35.90
2017-06-13T17:34:57.075Z,35.40
2017-06-13T17:37:25.332Z,35.80
2017-06-13T17:39:52.784Z,35.80
2017-06-13T17:42:20.241Z,37.00
2017-06-13T17:44:47.691Z,36.40
2017-06-13T17:47:15.157Z,36.40
2017-06-13T17:49:42.606Z,36.50
2017-06-13T17:52:10.063Z,36.30
2017-06-13T17:54:37.515Z,36.30
2017-06-13T17:57:04.970Z,36.30
2017-06-13T17:59:32.539Z,36.40
2017-06-13T18:01:59.993Z,36.80
2017-06-13T18:04:27.447Z,37.00
2017-06-13T18:06:54.911Z,37.50
2017-06-13T18:09:22.370Z,37.60
2017-06-13T18:11:49.919Z,38.20
2017-06-13T18:14:17.379Z,37.80
2017-06-13T18:16:44.832Z,38.00
2017-06-13T18:19:12.279Z,38.50
2017-06-13T18:21:39.726Z,38.40
2017-06-13T18:24:07.187Z,38.70
2017-06-13T18:26:34.639Z,38.70
2017-06-13T18:29:02.101Z,38.60
2017-06-13T18:31:29.550Z,38.70
2017-06-13T18:33:57.035Z,38.70
2017-06-13T18:36:25.294Z,39.30
2017-06-13T18:38:52.751Z,39.00
2017-06-13T18:41:21.043Z,39.00
2017-06-13T18:43:48.511Z,39.10
2017-06-13T18:46:17.552Z,39.10
2017-06-13T18:48:45.006Z,39.10
2017-06-13T18:51:12.502Z,39.10
2017-06-13T18:53:39.946Z,39.20
2017-06-13T18:56:07.403Z,39.60
2017-06-13T18:58:34.850Z,39.60
2017-06-13T19:01:02.303Z,39.70
2017-06-13T19:03:29.771Z,40.20
2017-06-13T19:05:57.235Z,40.10
2017-06-13T19:08:24.689Z,40.60
2017-06-13T19:10:52.160Z,40.70
2017-06-13T19:13:19.710Z,40.80
2017-06-13T19:15:48.363Z,41.20
2017-06-13T19:18:15.849Z,41.10
2017-06-13T19:20:43.319Z,41.20
2017-06-13T19:23:10.779Z,41.40
2017-06-13T19:25:39.007Z,41.80
2017-06-13T19:28:06.463Z,42.00
2017-06-13T19:30:34.054Z,41.80
2017-06-13T19:33:01.502Z,42.00
2017-06-13T19:35:28.963Z,42.20
2017-06-13T19:37:56.414Z,42.80
2017-06-13T19:40:23.883Z,43.30
2017-06-13T19:42:52.835Z,43.40
2017-06-13T19:45:20.902Z,43.40
2017-06-13T19:47:48.368Z,43.80
2017-06-13T19:50:15.822Z,43.60
2017-06-13T19:52:43.968Z,43.40
2017-06-13T19:55:11.415Z,42.90
2017-06-13T19:57:40.574Z,42.70
2017-06-13T20:00:08.868Z,42.70
2017-06-13T20:02:36.584Z,42.50
2017-06-13T20:05:04.139Z,42.40
2017-06-13T20:07:32.627Z,42.50
2017-06-13T20:10:00.092Z,42.40
2017-06-13T20:12:27.570Z,42.30
2017-06-13T20:14:55.026Z,42.30
2017-06-13T20:17:22.646Z,42.20
2017-06-13T20:19:50.139Z,42.20
2017-06-13T20:22:17.594Z,42.20
2017-06-13T20:24:45.063Z,42.10
2017-06-13T20:27:18.251Z,42.10
2017-06-13T20:29:45.708Z,42.10
2017-06-13T20:32:13.167Z,42.10
2017-06-13T20:34:40.627Z,42.10
2017-06-13T20:37:08.851Z,42.10
2017-06-13T20:39:36.307Z,42.10
2017-06-13T20:42:03.765Z,42.10
2017-06-13T20:44:31.255Z,42.10
2017-06-13T20:46:59.530Z,42.10
2017-06-13T20:49:27.010Z,42.10
2017-06-13T20:51:54.559Z,42.70
2017-06-13T20:54:22.006Z,41.70
2017-06-13T20:56:49.462Z,42.20
2017-06-13T20:59:17.022Z,42.20
2017-06-13T21:01:44.479Z,42.20
2017-06-13T21:04:11.934Z,42.20
2017-06-13T21:06:39.488Z,42.30
2017-06-13T21:09:06.947Z,42.30
2017-06-13T21:11:34.406Z,42.30
2017-06-13T21:14:01.863Z,42.30
2017-06-13T21:16:29.322Z,42.30
2017-06-13T21:18:56.878Z,42.40
2017-06-13T21:21:24.338Z,42.40
2017-06-13T21:23:51.894Z,42.40
2017-06-13T21:26:19.350Z,42.40
2017-06-13T21:28:46.798Z,42.40
2017-06-13T21:31:14.259Z,42.50
2017-06-13T21:33:41.719Z,42.50
2017-06-13T21:36:09.167Z,42.50
2017-06-13T21:38:36.622Z,42.50
2017-06-13T21:41:04.070Z,42.50
2017-06-13T21:43:31.529Z,42.50
2017-06-13T21:45:58.982Z,42.60
2017-06-13T21:48:26.442Z,42.60
2017-06-13T22:04:14.051Z,42.30
2017-06-13T22:06:41.498Z,42.80
2017-06-13T22:09:08.982Z,42.80
2017-06-13T22:11:36.439Z,42.80
2017-06-13T22:14:03.895Z,42.80
2017-06-13T22:16:31.352Z,42.80
2017-06-13T22:18:58.806Z,42.80
2017-06-13T22:21:26.272Z,42.80
2017-06-13T22:23:53.726Z,42.90
2017-06-13T22:26:21.959Z,42.70
2017-06-13T22:28:49.451Z,42.80
2017-06-13T22:31:16.905Z,42.90
2017-06-13T22:33:44.359Z,42.80
2017-06-13T22:36:11.815Z,42.80
2017-06-13T22:38:39.270Z,42.90
2017-06-13T22:41:06.793Z,42.80
2017-06-13T22:43:34.299Z,42.80
2017-06-13T22:46:01.843Z,42.80
2017-06-13T22:48:30.026Z,42.80
2017-06-13T22:50:57.570Z,42.80
2017-06-13T22:53:25.023Z,42.80
2017-06-13T22:55:52.479Z,42.80
2017-06-13T22:58:19.934Z,42.80
2017-06-13T23:00:47.391Z,42.80
2017-06-13T23:03:14.854Z,42.80
2017-06-13T23:05:42.419Z,42.80
2017-06-13T23:08:09.874Z,42.80
2017-06-13T23:10:37.331Z,42.80
2017-06-13T23:13:04.786Z,42.80
2017-06-13T23:15:32.243Z,42.80
2017-06-13T23:17:59.698Z,42.80
2017-06-13T23:20:27.253Z,42.90
2017-06-13T23:22:54.698Z,42.90
2017-06-13T23:25:22.160Z,42.90
2017-06-13T23:27:49.605Z,43.50
2017-06-13T23:30:17.180Z,42.90
2017-06-13T23:32:44.628Z,42.90
2017-06-13T23:35:12.082Z,42.90
2017-06-13T23:37:39.554Z,43.00
2017-06-13T23:40:07.022Z,43.00
2017-06-13T23:42:34.470Z,42.90
2017-06-13T23:45:02.018Z,42.90
2017-06-13T23:47:29.470Z,42.90
2017-06-13T23:49:57.039Z,42.90
2017-06-13T23:52:24.498Z,43.00
2017-06-13T23:54:51.951Z,42.90
2017-06-13T23:57:19.415Z,42.90
2017-06-13T23:59:46.866Z,43.00
